Observation data for Denver City on 11/19/2019      Previous  Date  Next       Current Mesonet Observations  Soil Data  Daily Summary Page  Observations in Plain Language
KDVS 190600Z 09001KT 09/M01 A2999 RMK A01 T00941013  RH  048%=      5-min Rain = 0
KDVS 190605Z 10001KT 10/M02 A2999 RMK A01 T00991015  RH  045%=      5-min Rain = 0
KDVS 190610Z 11000KT 10/M02 A2999 RMK A01 T01001015  RH  045%=      5-min Rain = 0
KDVS 190615Z 11001KT 10/M02 A2999 RMK A01 T01031017  RH  043%=      5-min Rain = 0
KDVS 190620Z 12001KT 10/M02 A2999 RMK A01 T01031018  RH  043%=      5-min Rain = 0
KDVS 190625Z 16002KT 10/M02 A2999 RMK A01 T01011018  RH  044%=      5-min Rain = 0
KDVS 190630Z 21005KT 09/M01 A30 RMK A01 T00911014  RH  048%=      5-min Rain = 0
KDVS 190635Z 20005KT 08/M01 A30 RMK A01 T00821011  RH  052%=      5-min Rain = 0
KDVS 190640Z 22006KT 08/M01 A30 RMK A01 T00791011  RH  054%=      5-min Rain = 0
KDVS 190645Z 22004KT 07/M01 A30 RMK A01 T00741011  RH  055%=      5-min Rain = 0
KDVS 190650Z 20003KT 07/M01 A30 RMK A01 T00711010  RH  057%=      5-min Rain = 0
KDVS 190655Z 23003KT 07/M01 A30 RMK A01 T00691010  RH  058%=      5-min Rain = 0
KDVS 190700Z 25004KT 06/M01 A30 RMK A01 T00601009  RH  062%=      5-min Rain = 0
KDVS 190705Z 25004KT 05/M01 A30 RMK A01 T00541008  RH  065%=      5-min Rain = 0
KDVS 190710Z 25005KT 06/M01 A30 RMK A01 T00551008  RH  064%=      5-min Rain = 0
KDVS 190715Z 25004KT 06/M01 A30 RMK A01 T00591008  RH  063%=      5-min Rain = 0
KDVS 190720Z 27006KT 06/M01 A3001 RMK A01 T00581010  RH  062%=      5-min Rain = 0
KDVS 190725Z 27004KT 06/M01 A3001 RMK A01 T00551008  RH  065%=      5-min Rain = 0
KDVS 190730Z 27005KT 06/M01 A3001 RMK A01 T00561007  RH  064%=      5-min Rain = 0
KDVS 190735Z 27004KT 06/M01 A30 RMK A01 T00551007  RH  065%=      5-min Rain = 0
KDVS 190740Z 27003KT 05/M01 A30 RMK A01 T00541008  RH  065%=      5-min Rain = 0
KDVS 190745Z 29004KT 05/M01 A30 RMK A01 T00521009  RH  065%=      5-min Rain = 0
KDVS 190750Z 31004KT 05/M01 A30 RMK A01 T00521007  RH  066%=      5-min Rain = 0
KDVS 190755Z 31004KT 05/M01 A30 RMK A01 T00541007  RH  066%=      5-min Rain = 0
KDVS 190800Z 32003KT 06/M01 A2999 RMK A01 T00561007  RH  065%=      5-min Rain = 0
KDVS 190805Z 33003KT 06/M01 A2999 RMK A01 T00561007  RH  064%=      5-min Rain = 0
KDVS 190810Z 33004KT 05/M01 A2999 RMK A01 T00541008  RH  065%=      5-min Rain = 0
KDVS 190815Z 33004KT 05/M01 A2999 RMK A01 T00511008  RH  066%=      5-min Rain = 0
KDVS 190820Z 33005KT 05/M01 A2999 RMK A01 T00471009  RH  068%=      5-min Rain = 0
KDVS 190825Z 33005KT 04/M01 A2999 RMK A01 T00441009  RH  069%=      5-min Rain = 0
KDVS 190830Z 32006KT 04/M01 A30 RMK A01 T00421008  RH  071%=      5-min Rain = 0
KDVS 190835Z 31006KT 04/M01 A30 RMK A01 T00411007  RH  071%=      5-min Rain = 0
KDVS 190840Z 31005KT 04/M01 A2999 RMK A01 T00421007  RH  071%=      5-min Rain = 0
KDVS 190845Z 32005KT 04/M01 A2999 RMK A01 T00401007  RH  072%=      5-min Rain = 0
KDVS 190850Z 32005KT 04/M01 A2999 RMK A01 T00401008  RH  072%=      5-min Rain = 0
KDVS 190855Z 32005KT 04/M01 A2999 RMK A01 T00401008  RH  072%=      5-min Rain = 0
KDVS 190900Z 31005KT 04/M01 A2999 RMK A01 T00401009  RH  071%=      5-min Rain = 0
KDVS 190905Z 31005KT 04/M01 A2999 RMK A01 T00391009  RH  071%=      5-min Rain = 0
KDVS 190910Z 32006KT 04/M01 A2998 RMK A01 T00381009  RH  072%=      5-min Rain = 0
KDVS 190915Z 33006KT 04/M01 A2998 RMK A01 T00361009  RH  073%=      5-min Rain = 0
KDVS 190920Z 32007KT 04/M01 A2998 RMK A01 T00351008  RH  074%=      5-min Rain = 0
KDVS 190925Z 31007KT 04/M01 A2998 RMK A01 T00361008  RH  073%=      5-min Rain = 0
KDVS 190930Z 32007KT 04/M01 A2998 RMK A01 T00361009  RH  073%=      5-min Rain = 0
KDVS 190935Z 32007KT 03/M01 A2998 RMK A01 T00341010  RH  074%=      5-min Rain = 0
KDVS 190940Z 32007KT 03/M01 A2998 RMK A01 T00331010  RH  074%=      5-min Rain = 0
KDVS 190945Z 32007KT 03/M01 A2998 RMK A01 T00341010  RH  074%=      5-min Rain = 0
KDVS 190950Z 31007KT 03/M01 A2998 RMK A01 T00331010  RH  074%=      5-min Rain = 0
KDVS 190955Z 31006KT 03/M01 A2999 RMK A01 T00331010  RH  074%=      5-min Rain = 0
KDVS 191000Z 30006KT 03/M01 A2999 RMK A01 T00321010  RH  074%=      5-min Rain = 0
KDVS 191005Z 29007KT 03/M01 A2999 RMK A01 T00321011  RH  074%=      5-min Rain = 0
KDVS 191010Z 30007KT 03/M01 A2999 RMK A01 T00331011  RH  073%=      5-min Rain = 0
KDVS 191015Z 30007KT 03/M01 A2998 RMK A01 T00331012  RH  073%=      5-min Rain = 0
KDVS 191020Z 32007KT 03/M01 A2998 RMK A01 T00321012  RH  074%=      5-min Rain = 0
KDVS 191025Z 32006KT 03/M01 A2998 RMK A01 T00301012  RH  075%=      5-min Rain = 0
KDVS 191030Z 33006KT 03/M01 A2998 RMK A01 T00301011  RH  075%=      5-min Rain = 0
KDVS 191035Z 33006KT 03/M01 A2998 RMK A01 T00321010  RH  075%=      5-min Rain = 0
KDVS 191040Z 33007KT 04/M01 A2998 RMK A01 T00361011  RH  072%=      5-min Rain = 0
KDVS 191045Z 33007KT 04/M01 A2998 RMK A01 T00381011  RH  071%=      5-min Rain = 0
KDVS 191050Z 32008KT 04/M01 A2998 RMK A01 T00371012  RH  071%=      5-min Rain = 0
KDVS 191055Z 32008KT 04/M01 A2998 RMK A01 T00351012  RH  072%=      5-min Rain = 0
KDVS 191100Z 31007KT 03/M01 A2998 RMK A01 T00341011  RH  073%=      5-min Rain = 0
KDVS 191105Z 31007KT 03/M01 A2997 RMK A01 T00341011  RH  073%=      5-min Rain = 0
KDVS 191110Z 31006KT 03/M01 A2997 RMK A01 T00341012  RH  073%=      5-min Rain = 0
KDVS 191115Z 31006KT 03/M01 A2997 RMK A01 T00311012  RH  074%=      5-min Rain = 0
KDVS 191120Z 32006KT 03/M01 A2997 RMK A01 T00311012  RH  074%=      5-min Rain = 0
KDVS 191125Z 32007KT 03/M01 A2997 RMK A01 T00301012  RH  075%=      5-min Rain = 0
KDVS 191130Z 32007KT 03/M01 A2997 RMK A01 T00301011  RH  075%=      5-min Rain = 0
KDVS 191135Z 32007KT 03/M01 A2997 RMK A01 T00291011  RH  075%=      5-min Rain = 0
KDVS 191140Z 33006KT 03/M01 A2996 RMK A01 T00311011  RH  075%=      5-min Rain = 0
KDVS 191145Z 34006KT 03/M01 A2996 RMK A01 T00331011  RH  073%=      5-min Rain = 0
KDVS 191150Z 34006KT 04/M01 A2996 RMK A01 T00361011  RH  072%=      5-min Rain = 0
KDVS 191155Z 34006KT 04/M01 A2996 RMK A01 T00381012  RH  071%=      5-min Rain = 0
KDVS 191200Z 34006KT 04/M01 A2996 RMK A01 T00371013  RH  071%=      5-min Rain = 0
KDVS 191205Z 34005KT 04/M01 A2996 RMK A01 T00361013  RH  071%=      5-min Rain = 0
KDVS 191210Z 34005KT 04/M01 A2996 RMK A01 T00351013  RH  072%=      5-min Rain = 0
KDVS 191215Z 34005KT 03/M01 A2996 RMK A01 T00321013  RH  073%=      5-min Rain = 0
KDVS 191220Z 33006KT 03/M01 A2996 RMK A01 T00281013  RH  075%=      5-min Rain = 0
KDVS 191225Z 33005KT 03/M01 A2996 RMK A01 T00271012  RH  076%=      5-min Rain = 0
KDVS 191230Z 32005KT 03/M01 A2996 RMK A01 T00271011  RH  077%=      5-min Rain = 0
KDVS 191235Z 34005KT 03/M01 A2996 RMK A01 T00271012  RH  076%=      5-min Rain = 0
KDVS 191240Z 34004KT 03/M01 A2996 RMK A01 T00261013  RH  076%=      5-min Rain = 0
KDVS 191245Z 34005KT 03/M01 A2996 RMK A01 T00251013  RH  076%=      5-min Rain = 0
KDVS 191250Z 34005KT 02/M01 A2996 RMK A01 T00231013  RH  078%=      5-min Rain = 0
KDVS 191255Z 34005KT 02/M01 A2996 RMK A01 T00231013  RH  078%=      5-min Rain = 0
KDVS 191300Z 33005KT 02/M01 A2996 RMK A01 T00231013  RH  078%=      5-min Rain = 0
KDVS 191305Z 34003KT 02/M01 A2996 RMK A01 T00231013  RH  078%=      5-min Rain = 0
KDVS 191310Z 34003KT 02/M01 A2996 RMK A01 T00241013  RH  078%=      5-min Rain = 0
KDVS 191315Z 33003KT 02/M01 A2996 RMK A01 T00241013  RH  077%=      5-min Rain = 0
KDVS 191320Z 31005KT 03/M01 A2996 RMK A01 T00251013  RH  077%=      5-min Rain = 0
KDVS 191325Z 32005KT 03/M01 A2996 RMK A01 T00251013  RH  076%=      5-min Rain = 0
KDVS 191330Z 34004KT 02/M01 A2996 RMK A01 T00221014  RH  077%=      5-min Rain = 0
KDVS 191335Z 02002KT 02/M01 A2996 RMK A01 T00211013  RH  079%=      5-min Rain = 0
KDVS 191340Z 08002KT 03/M01 A2996 RMK A01 T00321008  RH  076%=      5-min Rain = 0
KDVS 191345Z 30003KT 03/M01 A2997 RMK A01 T00341013  RH  072%=      5-min Rain = 0
KDVS 191350Z 32001KT 03/M01 A2997 RMK A01 T00311011  RH  074%=      5-min Rain = 0
KDVS 191355Z 30004KT 04/M01 A2997 RMK A01 T00351009  RH  074%=      5-min Rain = 0
KDVS 191400Z 30004KT 04/M01 A2997 RMK A01 T00401006  RH  073%=      5-min Rain = 0
KDVS 191405Z 30003KT 04/M01 A2997 RMK A01 T00431006  RH  072%=      5-min Rain = 0
KDVS 191410Z 28003KT 05/M00 A2997 RMK A01 T00451003  RH  071%=      5-min Rain = 0
KDVS 191415Z 29003KT 05/M00 A2997 RMK A01 T00501001  RH  071%=      5-min Rain = 0
KDVS 191420Z 29003KT 06/00 A2997 RMK A01 T00550002  RH  069%=      5-min Rain = 0
KDVS 191425Z 28002KT 06/00 A2998 RMK A01 T00590002  RH  068%=      5-min Rain = 0
KDVS 191430Z 28002KT 06/00 A2998 RMK A01 T00640004  RH  066%=      5-min Rain = 0
KDVS 191435Z 27001KT 07/01 A2998 RMK A01 T00700005  RH  064%=      5-min Rain = 0
KDVS 191440Z 27001KT 08/01 A2998 RMK A01 T00760007  RH  063%=      5-min Rain = 0
KDVS 191445Z 26002KT 08/01 A2998 RMK A01 T00830010  RH  061%=      5-min Rain = 0
KDVS 191450Z 26002KT 09/01 A2998 RMK A01 T00910012  RH  058%=      5-min Rain = 0
KDVS 191455Z 23002KT 10/01 A2998 RMK A01 T01000012  RH  055%=      5-min Rain = 0
KDVS 191500Z 20002KT 11/01 A2998 RMK A01 T01070008  RH  051%=      5-min Rain = 0
KDVS 191505Z 20003KT 11/00 A2998 RMK A01 T01120000  RH  047%=      5-min Rain = 0
KDVS 191510Z 18003KT 12/M00 A2998 RMK A01 T01161002  RH  044%=      5-min Rain = 0
KDVS 191515Z 18004KT 12/00 A2998 RMK A01 T011700-0  RH  045%=      5-min Rain = 0
KDVS 191520Z 17006KT 12/00 A2998 RMK A01 T01210004  RH  045%=      5-min Rain = 0
KDVS 191525Z 16009KT 13/M00 A2998 RMK A01 T01321001  RH  040%=      5-min Rain = 0
KDVS 191530Z 17010KT 14/M01 A2998 RMK A01 T01381010  RH  036%=      5-min Rain = 0
KDVS 191535Z 18010KT 14/M01 A2998 RMK A01 T01401010  RH  036%=      5-min Rain = 0
KDVS 191540Z 17011KT 14/M01 A2998 RMK A01 T01411010  RH  036%=      5-min Rain = 0
KDVS 191545Z 17010KT 14/M01 A2998 RMK A01 T01431007  RH  036%=      5-min Rain = 0
KDVS 191550Z 19009KT 14/M00 A2998 RMK A01 T01441002  RH  037%=      5-min Rain = 0
KDVS 191555Z 19009KT 15/M00 A2998 RMK A01 T01481004  RH  036%=      5-min Rain = 0
KDVS 191600Z 19008KT 15/M01 A2998 RMK A01 T01521006  RH  034%=      5-min Rain = 0
KDVS 191605Z 18009KT 16/M01 A2998 RMK A01 T01571011  RH  032%=      5-min Rain = 0
KDVS 191610Z 19008KT 16/M01 A2998 RMK A01 T01601012  RH  031%=      5-min Rain = 0
KDVS 191615Z 19008KT 16/M01 A2998 RMK A01 T01631010  RH  031%=      5-min Rain = 0
KDVS 191620Z 19008KT 17/M01 A2998 RMK A01 T01651009  RH  031%=      5-min Rain = 0
KDVS 191625Z 19008KT 17/M01 A2998 RMK A01 T01671009  RH  030%=      5-min Rain = 0
KDVS 191630Z 19010KT 17/M01 A2998 RMK A01 T01741011  RH  029%=      5-min Rain = 0
KDVS 191635Z 20010KT 18/M01 A2998 RMK A01 T01771010  RH  028%=      5-min Rain = 0
KDVS 191640Z 19011KT 18/M01 A2998 RMK A01 T01781011  RH  028%=      5-min Rain = 0
KDVS 191645Z 19012KT 18/M01 A2998 RMK A01 T01831012  RH  027%=      5-min Rain = 0
KDVS 191650Z 19012KT 19/M02 A2998 RMK A01 T01851015  RH  026%=      5-min Rain = 0
KDVS 191655Z 19011KT 19/M01 A2998 RMK A01 T01881013  RH  026%=      5-min Rain = 0
KDVS 191700Z 19010KT 19/M01 A2998 RMK A01 T01921013  RH  025%=      5-min Rain = 0
KDVS 191705Z 19010KT 19/M01 A2997 RMK A01 T01941013  RH  025%=      5-min Rain = 0
KDVS 191710Z 20009KT 20/M01 A2997 RMK A01 T01951011  RH  025%=      5-min Rain = 0
KDVS 191715Z 19012KT 20/M02 A2997 RMK A01 T01981016  RH  024%=      5-min Rain = 0
KDVS 191720Z 19012KT 20/M02 A2997 RMK A01 T02011017  RH  023%=      5-min Rain = 0
KDVS 191725Z 20011KT 20/M02 A2996 RMK A01 T02041016  RH  023%=      5-min Rain = 0
KDVS 191730Z 19012KT 21/M02 A2996 RMK A01 T02051019  RH  022%=      5-min Rain = 0
KDVS 191735Z 19013KT 21/M02 A2996 RMK A01 T02071021  RH  022%=      5-min Rain = 0
KDVS 191740Z 20011G18KT 21/M02 A2996 RMK A01 T02111018  RH  022%=      5-min Rain = 0
KDVS 191745Z 21014KT 21/M02 A2995 RMK A01 T02121024  RH  021%=      5-min Rain = 0
KDVS 191750Z 20014KT 21/M03 A2995 RMK A01 T02111025  RH  020%=      5-min Rain = 0
KDVS 191755Z 20014KT 21/M03 A2995 RMK A01 T02131027  RH  020%=      5-min Rain = 0
KDVS 191800Z 21013G18KT 22/M03 A2995 RMK A01 T02151029  RH  019%=      5-min Rain = 0
KDVS 191805Z 20013KT 22/M03 A2995 RMK A01 T02161029  RH  019%=      5-min Rain = 0
KDVS 191810Z 20013KT 22/M03 A2994 RMK A01 T02181031  RH  019%=      5-min Rain = 0
KDVS 191815Z 20011KT 22/M03 A2994 RMK A01 T02181033  RH  018%=      5-min Rain = 0
KDVS 191820Z 20011KT 22/M03 A2994 RMK A01 T02221029  RH  019%=      5-min Rain = 0
KDVS 191825Z 21011KT 22/M03 A2994 RMK A01 T02221031  RH  018%=      5-min Rain = 0
KDVS 191830Z 20011KT 22/M03 A2993 RMK A01 T02231029  RH  018%=      5-min Rain = 0
KDVS 191835Z 21012KT 22/M03 A2993 RMK A01 T02221031  RH  018%=      5-min Rain = 0
KDVS 191840Z 20012KT 22/M03 A2992 RMK A01 T02241033  RH  018%=      5-min Rain = 0
KDVS 191845Z 20012KT 23/M03 A2992 RMK A01 T02271033  RH  017%=      5-min Rain = 0
KDVS 191850Z 22012KT 23/M04 A2992 RMK A01 T02281035  RH  017%=      5-min Rain = 0
KDVS 191855Z 20011G16KT 23/M04 A2991 RMK A01 T02271037  RH  017%=      5-min Rain = 0
KDVS 191900Z 20011KT 23/M04 A2991 RMK A01 T02291042  RH  016%=      5-min Rain = 0
KDVS 191905Z 20011KT 23/M04 A299 RMK A01 T02331042  RH  016%=      5-min Rain = 0
KDVS 191910Z 21012KT 24/M04 A299 RMK A01 T02351044  RH  015%=      5-min Rain = 0
KDVS 191915Z 20012KT 24/M05 A299 RMK A01 T02351046  RH  015%=      5-min Rain = 0
KDVS 191920Z 20012KT 23/M05 A2989 RMK A01 T02331048  RH  015%=      5-min Rain = 0
KDVS 191925Z 20011KT 23/M05 A2989 RMK A01 T02321048  RH  015%=      5-min Rain = 0
KDVS 191930Z 20011KT 24/M05 A2989 RMK A01 T02371048  RH  015%=      5-min Rain = 0
KDVS 191935Z 19013KT 24/M05 A2988 RMK A01 T02411050  RH  014%=      5-min Rain = 0
KDVS 191940Z 20013KT 24/M05 A2988 RMK A01 T02381051  RH  014%=      5-min Rain = 0
KDVS 191945Z 20011KT 24/M05 A2988 RMK A01 T02421047  RH  014%=      5-min Rain = 0
KDVS 191950Z 20011G17KT 25/M05 A2987 RMK A01 T02461047  RH  014%=      5-min Rain = 0
KDVS 191955Z 20013KT 25/M05 A2987 RMK A01 T02461048  RH  014%=      5-min Rain = 0
KDVS 192000Z 20012KT 25/M05 A2987 RMK A01 T02461049  RH  014%=      5-min Rain = 0
KDVS 192005Z 20011G17KT 25/M05 A2986 RMK A01 T02471048  RH  014%=      5-min Rain = 0
KDVS 192010Z 18012KT 25/M05 A2986 RMK A01 T02481046  RH  014%=      5-min Rain = 0
KDVS 192015Z 19012G17KT 25/M05 A2986 RMK A01 T02521046  RH  014%=      5-min Rain = 0
KDVS 192020Z 20013KT 25/M05 A2986 RMK A01 T02521047  RH  013%=      5-min Rain = 0
KDVS 192025Z 20012G17KT 25/M05 A2985 RMK A01 T02491049  RH  014%=      5-min Rain = 0
KDVS 192030Z 19013KT 25/M04 A2985 RMK A01 T02491044  RH  014%=      5-min Rain = 0
KDVS 192035Z 20012G17KT 25/M04 A2985 RMK A01 T02521043  RH  014%=      5-min Rain = 0
KDVS 192040Z 19013G18KT 25/M04 A2985 RMK A01 T02491044  RH  014%=      5-min Rain = 0
KDVS 192045Z 19015KT 25/M05 A2985 RMK A01 T02461045  RH  014%=      5-min Rain = 0
KDVS 192050Z 20014KT 24/M05 A2985 RMK A01 T02411046  RH  014%=      5-min Rain = 0
KDVS 192055Z 20015KT 24/M05 A2985 RMK A01 T02421045  RH  015%=      5-min Rain = 0
KDVS 192100Z 19016KT 24/M05 A2985 RMK A01 T02421047  RH  014%=      5-min Rain = 0
KDVS 192105Z 20013KT 24/M05 A2985 RMK A01 T02431046  RH  014%=      5-min Rain = 0
KDVS 192110Z 19014KT 24/M04 A2985 RMK A01 T02421043  RH  015%=      5-min Rain = 0
KDVS 192115Z 19011G16KT 24/M04 A2984 RMK A01 T02381040  RH  015%=      5-min Rain = 0
KDVS 192120Z 19012KT 24/M04 A2984 RMK A01 T02361040  RH  016%=      5-min Rain = 0
KDVS 192125Z 19012KT 23/M04 A2984 RMK A01 T02321040  RH  016%=      5-min Rain = 0
KDVS 192130Z 19011KT 23/M04 A2984 RMK A01 T02301039  RH  017%=      5-min Rain = 0
KDVS 192135Z 19010KT 23/M04 A2984 RMK A01 T02291040  RH  016%=      5-min Rain = 0
KDVS 192140Z 19012KT 23/M04 A2984 RMK A01 T02301040  RH  016%=      5-min Rain = 0
KDVS 192145Z 20012G17KT 23/M04 A2984 RMK A01 T02311042  RH  016%=      5-min Rain = 0
KDVS 192150Z 20012KT 24/M04 A2984 RMK A01 T02361044  RH  015%=      5-min Rain = 0
KDVS 192155Z 19012KT 24/M05 A2984 RMK A01 T02421047  RH  014%=      5-min Rain = 0
KDVS 192200Z 20014G19KT 24/M05 A2984 RMK A01 T02431053  RH  014%=      5-min Rain = 0
KDVS 192205Z 20011KT 24/M06 A2984 RMK A01 T02431055  RH  013%=      5-min Rain = 0
KDVS 192210Z 20012KT 24/M06 A2983 RMK A01 T02401055  RH  014%=      5-min Rain = 0
KDVS 192215Z 19011KT 24/M04 A2983 RMK A01 T02381043  RH  015%=      5-min Rain = 0
KDVS 192220Z 17012KT 24/M04 A2983 RMK A01 T02361037  RH  016%=      5-min Rain = 0
KDVS 192225Z 18012KT 23/M04 A2984 RMK A01 T02281035  RH  017%=      5-min Rain = 0
KDVS 192230Z 19012KT 23/M03 A2984 RMK A01 T02251034  RH  017%=      5-min Rain = 0
KDVS 192235Z 19011KT 23/M04 A2984 RMK A01 T02251035  RH  017%=      5-min Rain = 0
KDVS 192240Z 18012KT 23/M03 A2984 RMK A01 T02251034  RH  018%=      5-min Rain = 0
KDVS 192245Z 19011KT 23/M04 A2983 RMK A01 T02281035  RH  017%=      5-min Rain = 0
KDVS 192250Z 17010KT 23/M03 A2983 RMK A01 T02261033  RH  018%=      5-min Rain = 0
KDVS 192255Z 18010KT 22/M03 A2983 RMK A01 T02231033  RH  018%=      5-min Rain = 0
KDVS 192300Z 17009KT 22/M03 A2983 RMK A01 T02191030  RH  019%=      5-min Rain = 0
KDVS 192305Z 17008KT 21/M03 A2983 RMK A01 T02141028  RH  020%=      5-min Rain = 0
KDVS 192310Z 17008KT 21/M03 A2983 RMK A01 T02081027  RH  021%=      5-min Rain = 0
KDVS 192315Z 17007KT 20/M03 A2983 RMK A01 T02031026  RH  021%=      5-min Rain = 0
KDVS 192320Z 17008KT 20/M03 A2983 RMK A01 T01981025  RH  022%=      5-min Rain = 0
KDVS 192325Z 16008KT 19/M03 A2983 RMK A01 T01931025  RH  023%=      5-min Rain = 0
KDVS 192330Z 17008KT 19/M02 A2983 RMK A01 T01901024  RH  024%=      5-min Rain = 0
KDVS 192335Z 17008KT 19/M02 A2983 RMK A01 T01861024  RH  024%=      5-min Rain = 0
KDVS 192340Z 17008KT 18/M02 A2983 RMK A01 T01821023  RH  025%=      5-min Rain = 0
KDVS 192345Z 17008KT 18/M02 A2983 RMK A01 T01771022  RH  026%=      5-min Rain = 0
KDVS 192350Z 17008KT 17/M02 A2983 RMK A01 T01741022  RH  026%=      5-min Rain = 0
KDVS 192355Z 17009KT 17/M02 A2983 RMK A01 T01731022  RH  026%=      5-min Rain = 0
KDVS 200000Z 17009KT 17/M02 A2983 RMK A01 T01721022  RH  027%=      5-min Rain = 0
KDVS 200005Z 17008KT 17/M02 A2983 RMK A01 T01721022  RH  027%=      5-min Rain = 0
KDVS 200010Z 16007KT 17/M02 A2984 RMK A01 T01681021  RH  028%=      5-min Rain = 0
KDVS 200015Z 16006KT 16/M02 A2983 RMK A01 T01631021  RH  029%=      5-min Rain = 0
KDVS 200020Z 17007KT 16/M02 A2983 RMK A01 T01601021  RH  029%=      5-min Rain = 0
KDVS 200025Z 18009KT 16/M02 A2984 RMK A01 T01601023  RH  029%=      5-min Rain = 0
KDVS 200030Z 18010KT 17/M03 A2984 RMK A01 T01671025  RH  027%=      5-min Rain = 0
KDVS 200035Z 18009KT 17/M03 A2983 RMK A01 T01721025  RH  026%=      5-min Rain = 0
KDVS 200040Z 18009KT 17/M03 A2983 RMK A01 T01731025  RH  026%=      5-min Rain = 0
KDVS 200045Z 18009KT 17/M02 A2984 RMK A01 T01711023  RH  027%=      5-min Rain = 0
KDVS 200050Z 18009KT 17/M02 A2984 RMK A01 T01701023  RH  027%=      5-min Rain = 0
KDVS 200055Z 18010KT 17/M02 A2984 RMK A01 T01701023  RH  027%=      5-min Rain = 0
KDVS 200100Z 19009KT 17/M02 A2984 RMK A01 T01671021  RH  028%=      5-min Rain = 0
KDVS 200105Z 19008KT 16/M02 A2984 RMK A01 T01641020  RH  028%=      5-min Rain = 0
KDVS 200110Z 19008KT 16/M02 A2984 RMK A01 T01611019  RH  029%=      5-min Rain = 0
KDVS 200115Z 19008KT 16/M02 A2984 RMK A01 T01591018  RH  030%=      5-min Rain = 0
KDVS 200120Z 19007KT 16/M02 A2984 RMK A01 T01571018  RH  030%=      5-min Rain = 0
KDVS 200125Z 19007KT 16/M02 A2984 RMK A01 T01551018  RH  031%=      5-min Rain = 0
KDVS 200130Z 19007KT 16/M02 A2985 RMK A01 T01551018  RH  031%=      5-min Rain = 0
KDVS 200135Z 19007KT 15/M02 A2985 RMK A01 T01531016  RH  031%=      5-min Rain = 0
KDVS 200140Z 19007KT 15/M02 A2984 RMK A01 T01521016  RH  032%=      5-min Rain = 0
KDVS 200145Z 19008KT 15/M02 A2984 RMK A01 T01521017  RH  032%=      5-min Rain = 0
KDVS 200150Z 18007KT 15/M02 A2984 RMK A01 T01511017  RH  032%=      5-min Rain = 0
KDVS 200155Z 18008KT 15/M02 A2984 RMK A01 T01521018  RH  031%=      5-min Rain = 0
KDVS 200200Z 19009KT 15/M02 A2984 RMK A01 T01521018  RH  031%=      5-min Rain = 0
KDVS 200205Z 18008KT 15/M02 A2984 RMK A01 T01521019  RH  031%=      5-min Rain = 0
KDVS 200210Z 18007KT 15/M02 A2984 RMK A01 T01521020  RH  031%=      5-min Rain = 0
KDVS 200215Z 17008KT 15/M02 A2984 RMK A01 T01511020  RH  031%=      5-min Rain = 0
KDVS 200220Z 18008KT 15/M02 A2984 RMK A01 T01501020  RH  031%=      5-min Rain = 0
KDVS 200225Z 18008KT 15/M02 A2984 RMK A01 T01471019  RH  032%=      5-min Rain = 0
KDVS 200230Z 18008KT 14/M02 A2985 RMK A01 T01431019  RH  033%=      5-min Rain = 0
KDVS 200235Z 18008KT 14/M02 A2985 RMK A01 T01391018  RH  034%=      5-min Rain = 0
KDVS 200240Z 18008KT 14/M02 A2985 RMK A01 T01371017  RH  035%=      5-min Rain = 0
KDVS 200245Z 18009KT 14/M02 A2985 RMK A01 T01381019  RH  034%=      5-min Rain = 0
KDVS 200250Z 18009KT 14/M02 A2985 RMK A01 T01401019  RH  033%=      5-min Rain = 0
KDVS 200255Z 18009KT 14/M02 A2985 RMK A01 T01401019  RH  034%=      5-min Rain = 0
KDVS 200300Z 19009KT 14/M02 A2985 RMK A01 T01391019  RH  034%=      5-min Rain = 0
KDVS 200305Z 19008KT 14/M02 A2985 RMK A01 T01381019  RH  034%=      5-min Rain = 0
KDVS 200310Z 19007KT 14/M02 A2985 RMK A01 T01381019  RH  034%=      5-min Rain = 0
KDVS 200315Z 19008KT 14/M02 A2985 RMK A01 T01371018  RH  035%=      5-min Rain = 0
KDVS 200320Z 20008KT 13/M02 A2985 RMK A01 T01321015  RH  036%=      5-min Rain = 0
KDVS 200325Z 20009KT 13/M02 A2985 RMK A01 T01291015  RH  037%=      5-min Rain = 0
KDVS 200330Z 20009KT 13/M02 A2985 RMK A01 T01331017  RH  036%=      5-min Rain = 0
KDVS 200335Z 20009KT 14/M02 A2985 RMK A01 T01351018  RH  035%=      5-min Rain = 0
KDVS 200340Z 20009KT 13/M02 A2985 RMK A01 T01341017  RH  035%=      5-min Rain = 0
KDVS 200345Z 20008KT 13/M02 A2985 RMK A01 T01321016  RH  036%=      5-min Rain = 0
KDVS 200350Z 20008KT 13/M02 A2985 RMK A01 T01301015  RH  037%=      5-min Rain = 0
KDVS 200355Z 20008KT 13/M01 A2985 RMK A01 T01291014  RH  037%=      5-min Rain = 0
KDVS 200400Z 20008KT 13/M01 A2985 RMK A01 T01281013  RH  038%=      5-min Rain = 0
KDVS 200405Z 21008KT 13/M01 A2985 RMK A01 T01261011  RH  039%=      5-min Rain = 0
KDVS 200410Z 21007KT 13/M01 A2986 RMK A01 T01261009  RH  040%=      5-min Rain = 0
KDVS 200415Z 21008KT 13/M01 A2986 RMK A01 T01281006  RH  040%=      5-min Rain = 0
KDVS 200420Z 20008KT 13/M00 A2986 RMK A01 T01301003  RH  041%=      5-min Rain = 0
KDVS 200425Z 19008KT 13/00 A2986 RMK A01 T013000-0  RH  041%=      5-min Rain = 0
KDVS 200430Z 20008KT 13/00 A2986 RMK A01 T01300001  RH  042%=      5-min Rain = 0
KDVS 200435Z 20008KT 13/00 A2986 RMK A01 T01290004  RH  043%=      5-min Rain = 0
KDVS 200440Z 20009KT 13/01 A2986 RMK A01 T01330010  RH  044%=      5-min Rain = 0
KDVS 200445Z 20009KT 14/02 A2986 RMK A01 T01380017  RH  045%=      5-min Rain = 0
KDVS 200450Z 21010G15KT 14/03 A2986 RMK A01 T01430026  RH  046%=      5-min Rain = 0
KDVS 200455Z 21012KT 15/03 A2986 RMK A01 T01500030  RH  045%=      5-min Rain = 0
KDVS 200500Z 21013KT 15/03 A2986 RMK A01 T01520032  RH  045%=      5-min Rain = 0
KDVS 200505Z 21012KT 15/03 A2986 RMK A01 T01520033  RH  046%=      5-min Rain = 0
KDVS 200510Z 21011KT 15/03 A2986 RMK A01 T01530034  RH  046%=      5-min Rain = 0
KDVS 200515Z 21011KT 15/04 A2986 RMK A01 T01520035  RH  046%=      5-min Rain = 0
KDVS 200520Z 21012KT 15/04 A2986 RMK A01 T01520035  RH  046%=      5-min Rain = 0
KDVS 200525Z 21012KT 15/04 A2986 RMK A01 T01520036  RH  047%=      5-min Rain = 0
KDVS 200530Z 22011KT 15/04 A2986 RMK A01 T01510037  RH  047%=      5-min Rain = 0
KDVS 200535Z 21012KT 15/04 A2987 RMK A01 T01520038  RH  048%=      5-min Rain = 0
KDVS 200540Z 21012KT 15/04 A2986 RMK A01 T01510039  RH  048%=      5-min Rain = 0
KDVS 200545Z 21011KT 15/04 A2986 RMK A01 T01500040  RH  048%=      5-min Rain = 0
KDVS 200550Z 22010KT 15/04 A2986 RMK A01 T01490040  RH  049%=      5-min Rain = 0
KDVS 200555Z 21011KT 15/04 A2986 RMK A01 T01480041  RH  050%=      5-min Rain = 0

Page generated in 0.0094 seconds.